Date,TemperatureHighF,TemperatureAvgF,TemperatureLowF,DewpointHighF,DewpointAvgF,DewpointLowF,HumidityHigh,HumidityAvg,HumidityLow,PressureMaxIn,PressureMinIn,WindSpeedMaxMPH,WindSpeedAvgMPH,GustSpeedMaxMPH,PrecipitationSumIn
2013-1-1,64,51,41,45,38,13,96,67,20,30.27,30.11,10,2,10,0.00
2013-1-2,73,54,41,72,30,9,86,43,10,30.16,30.05,13,3,13,0.00
2013-1-3,77,52,36,75,38,13,93,66,10,30.20,30.07,11,2,11,0.00
2013-1-4,74,51,36,74,38,8,96,60,10,30.31,30.19,11,2,11,0.00
2013-1-5,71,50,35,46,37,12,97,67,11,30.32,30.20,11,2,11,0.00
2013-1-6,78,52,45,55,47,42,99,83,51,30.23,29.77,17,3,17,0.06
2013-1-7,73,53,39,48,43,28,99,75,20,30.12,30.00,14,2,14,0.00
2013-1-8,72,53,38,57,47,37,99,84,39,30.14,30.04,11,2,11,0.00
2013-1-9,69,54,42,56,51,42,99,89,57,30.16,30.04,10,2,10,0.01
2013-1-10,63,54,44,53,39,19,99,60,20,30.13,29.94,20,7,20,0.01
2013-1-11,76,50,40,33,23,16,56,36,20,30.22,29.86,19,7,19,0.00
2013-1-12,63,47,33,36,29,11,87,53,14,30.19,30.09,15,4,15,0.00
2013-1-13,66,46,33,33,28,7,89,55,11,30.20,29.79,15,3,15,0.00
2013-1-14,60,48,37,60,22,-11,59,20,10,30.37,30.15,22,7,22,0.00
2013-1-15,66,47,32,66,26,4,81,49,10,30.48,29.93,12,2,12,0.00
2013-1-16,74,51,35,47,36,26,89,62,19,30.38,30.14,10,2,10,0.00
2013-1-17,82,60,39,82,41,8,80,35,10,30.18,30.05,21,4,21,0.00
2013-1-18,84,58,40,83,40,14,77,44,10,30.16,30.05,13,2,13,0.00
2013-1-19,82,59,44,81,42,14,84,38,10,30.20,30.08,10,2,10,0.00
2013-1-20,83,59,42,83,34,14,66,37,10,30.16,30.00,13,2,13,0.00
2013-1-21,83,58,40,83,40,12,74,40,10,30.11,29.84,13,2,13,0.00
2013-1-22,87,56,38,87,41,15,85,52,10,30.12,30.02,11,2,11,0.00
2013-1-23,77,62,50,55,39,28,91,46,17,30.16,30.02,11,2,11,0.01
2013-1-24,75,60,54,59,55,52,99,85,52,30.22,30.11,11,4,11,0.57
2013-1-25,69,62,59,62,60,58,99,93,72,30.13,29.96,12,3,12,0.11
2013-1-26,71,60,55,64,59,55,99,96,76,30.03,29.91,14,3,14,0.04
2013-1-27,63,56,46,57,51,41,99,83,59,30.06,29.99,15,5,15,0.01
2013-1-28,65,51,39,43,35,22,90,57,21,30.20,30.04,20,4,20,0.00
2013-1-29,61,50,39,47,41,32,94,73,42,30.27,30.18,15,3,15,0.00
2013-1-30,73,54,41,51,45,40,99,75,34,30.37,30.23,11,2,11,0.00
2013-1-31,87,59,43,51,44,28,98,66,13,30.27,30.10,12,2,12,0.00
2013-2-1,72,58,44,56,48,39,97,73,32,30.19,30.11,12,2,12,0.00
2013-2-2,81,61,52,57,52,44,98,75,28,30.21,30.11,11,2,11,0.00
2013-2-3,80,62,53,58,54,44,99,79,29,30.16,30.02,15,3,15,0.00
2013-2-4,64,56,49,58,54,49,99,93,76,30.13,30.00,13,3,13,0.00
2013-2-5,62,56,53,53,52,50,95,86,70,30.14,30.01,11,3,11,0.00
2013-2-6,65,56,47,52,50,47,99,79,59,30.14,30.02,14,3,14,0.00
2013-2-7,63,53,43,54,48,43,99,82,65,30.17,30.01,12,4,12,0.00
2013-2-8,57,51,42,49,43,39,99,75,56,30.03,29.91,21,6,21,0.02
2013-2-9,60,48,36,45,41,36,99,78,48,30.13,29.96,15,3,15,0.01
2013-2-10,59,50,40,47,43,39,98,80,56,30.13,30.04,11,2,11,0.00
2013-2-11,66,52,39,48,42,37,99,73,39,30.26,30.08,17,3,17,0.00
2013-2-12,64,51,37,49,42,34,96,73,41,30.38,30.22,14,3,14,0.08
2013-2-13,69,53,39,49,42,35,98,71,29,30.29,30.15,13,3,13,0.00
2013-2-14,77,55,40,54,46,39,99,73,29,30.24,30.07,13,3,13,0.00
2013-2-15,86,65,43,86,54,16,92,39,12,30.20,30.11,18,4,18,0.00
2013-2-16,88,65,47,88,47,11,76,25,10,30.16,29.98,15,3,15,0.00
2013-2-17,70,55,42,57,49,38,99,81,50,30.05,29.94,15,4,15,0.00
2013-2-18,67,57,54,50,48,44,84,72,48,30.09,29.98,14,5,14,0.00
2013-2-19,60,54,47,49,44,40,99,70,55,30.01,29.73,19,7,19,0.14
2013-2-20,64,53,41,46,34,26,76,51,31,30.01,29.72,21,7,21,0.00
2013-2-21,68,53,42,46,42,32,88,67,35,30.12,29.99,14,3,14,0.00
2013-2-22,67,53,39,50,45,37,97,77,46,30.22,30.11,15,3,15,0.15
2013-2-23,68,53,40,52,46,38,99,79,39,30.18,29.95,19,4,19,0.00
2013-2-24,75,57,43,74,48,2,99,39,10,30.22,30.01,22,5,22,0.00
2013-2-25,69,54,39,49,36,12,96,56,12,30.24,30.09,14,4,14,0.00
2013-2-26,75,54,40,52,44,37,97,70,26,30.12,30.00,15,3,15,0.00
2013-2-27,81,60,43,81,50,9,93,44,10,30.28,30.13,14,4,14,0.00
2013-2-28,84,62,41,84,48,10,91,38,10,30.33,30.24,16,3,16,0.00
2013-3-1,90,68,47,89,54,12,72,29,10,30.31,30.00,20,4,20,0.00
2013-3-2,83,65,47,83,41,18,95,42,10,30.22,30.08,14,3,14,0.00
2013-3-3,68,58,52,59,54,51,99,88,58,30.12,30.00,17,5,17,0.00
2013-3-4,67,58,50,56,53,50,99,84,59,30.12,30.04,16,4,16,0.00
2013-3-5,68,57,51,54,52,48,99,85,57,30.16,30.06,16,4,16,0.00
2013-3-6,65,58,46,53,46,42,98,68,46,30.18,30.04,16,5,16,0.00
2013-3-7,63,57,53,54,51,47,98,83,62,30.04,29.87,15,5,15,0.00
2013-3-8,62,54,47,51,47,38,99,80,52,30.05,29.80,21,6,21,0.40
2013-3-9,70,56,46,52,47,39,96,73,39,30.24,30.04,16,4,16,0.00
2013-3-10,77,60,43,52,45,17,98,66,12,30.29,30.16,17,4,17,0.00
2013-3-11,72,58,43,56,49,42,99,77,42,30.21,30.06,13,3,13,0.00
2013-3-12,71,57,45,57,52,44,99,83,51,30.11,30.01,11,3,11,0.01
2013-3-13,74,58,46,62,53,46,99,86,55,30.14,30.03,13,4,13,0.01
2013-3-14,82,61,52,62,54,46,99,82,31,30.12,30.02,12,3,12,0.00
2013-3-15,67,57,53,59,55,52,99,92,71,30.08,29.96,15,5,15,0.00
2013-3-16,65,57,52,54,53,51,99,88,64,30.01,29.92,14,5,14,0.00
2013-3-17,67,59,54,55,53,51,95,82,61,30.04,29.96,15,5,15,0.00
2013-3-18,66,59,52,54,52,50,95,79,61,30.11,30.00,14,4,14,0.00
2013-3-19,71,58,49,56,53,49,99,86,56,30.15,30.06,15,3,15,0.00
2013-3-20,70,60,50,59,55,50,99,85,61,30.12,29.97,15,4,15,0.00
2013-3-21,69,60,52,57,55,51,99,86,64,29.98,29.82,15,5,15,0.00
2013-3-22,69,60,52,57,54,52,99,85,58,29.94,29.83,17,5,17,0.00
2013-3-23,70,61,53,56,54,37,99,79,55,30.14,29.93,15,4,15,0.00
2013-3-24,74,63,55,58,54,49,99,77,48,30.05,29.90,17,4,17,0.00
2013-3-25,72,60,54,58,56,52,99,87,53,30.01,29.91,15,4,15,0.00
2013-3-26,71,61,55,56,55,53,99,82,56,30.00,29.92,16,4,16,0.00
2013-3-27,70,60,54,55,54,32,98,81,55,30.12,29.95,16,4,16,0.00
2013-3-28,74,62,54,58,55,54,99,79,54,30.10,30.01,16,4,16,0.00
2013-3-29,70,60,55,59,56,54,99,88,64,30.14,30.06,16,4,16,0.00
2013-3-30,69,61,55,58,55,50,99,83,55,30.16,30.07,15,5,15,0.00
2013-3-31,70,62,54,60,56,44,97,83,67,30.20,30.07,18,5,18,0.00
2013-4-1,70,61,56,56,54,49,91,77,50,30.20,30.09,21,6,21,0.00
2013-4-2,72,61,54,56,54,52,97,79,53,30.12,30.01,14,4,14,0.00
2013-4-3,73,62,50,58,56,50,99,83,57,30.11,30.00,15,4,15,0.00
2013-4-4,72,63,58,58,57,55,96,80,57,30.13,30.03,16,5,16,0.00
2013-4-5,69,62,58,59,57,56,99,87,66,30.12,30.02,17,6,17,0.00
2013-4-6,70,63,58,59,57,54,98,82,61,30.11,29.98,17,5,17,0.00
2013-4-7,70,63,57,59,57,27,99,83,61,30.16,29.83,17,5,17,0.00
2013-4-8,70,63,56,58,48,33,99,62,35,30.15,29.68,32,8,32,0.00
2013-4-9,78,64,50,77,42,15,85,48,10,30.02,29.83,22,6,22,0.00
2013-4-10,87,65,48,87,51,17,94,57,10,30.12,29.99,19,4,19,0.00
2013-4-11,80,62,50,57,52,43,92,73,29,30.02,29.81,18,5,18,0.00
2013-4-12,77,63,56,56,54,53,96,75,45,29.93,29.79,16,5,17,0.00
2013-4-13,62,58,55,58,55,52,99,90,81,29.94,29.86,12,4,12,0.00
2013-4-14,68,59,54,55,53,51,92,80,60,29.91,29.84,15,5,15,0.00
2013-4-15,68,60,56,56,53,31,96,78,62,30.12,29.86,17,6,17,0.01
2013-4-16,71,60,51,52,44,24,85,60,26,30.00,29.89,25,6,25,0.00
2013-4-17,79,65,52,79,35,11,72,25,10,30.14,30.00,25,6,25,0.00
2013-4-18,87,67,47,86,57,5,82,23,10,30.22,30.12,24,7,24,0.00
2013-4-19,93,68,47,93,56,16,86,36,10,30.17,29.98,17,4,17,0.00
2013-4-20,83,66,52,60,56,48,99,74,32,30.01,29.88,16,4,16,0.00
2013-4-21,71,62,56,65,58,55,99,86,64,30.04,29.96,17,6,17,0.00
2013-4-22,70,62,57,57,55,53,95,79,57,30.04,29.92,17,5,17,0.00
2013-4-23,73,62,56,58,54,52,92,74,51,30.00,29.88,15,4,15,0.00
2013-4-24,67,61,59,58,55,50,94,82,58,30.01,29.92,12,4,12,0.00
2013-4-25,77,65,57,56,53,50,86,68,46,30.14,29.98,18,4,18,0.00
2013-4-26,81,65,51,58,54,50,97,70,40,30.18,30.10,18,4,18,0.00
2013-4-27,78,64,53,61,57,52,99,80,52,30.17,30.00,16,5,16,0.00
2013-4-28,76,64,58,60,58,57,99,83,55,30.05,29.87,15,5,15,0.00
2013-4-29,68,62,58,58,57,55,99,87,68,30.12,29.81,15,5,15,0.00
2013-4-30,67,62,59,57,56,54,88,81,69,29.92,29.85,15,5,15,0.00
2013-5-1,74,66,59,60,57,55,92,75,55,30.12,29.92,17,4,17,0.00
2013-5-2,97,74,54,97,64,27,99,54,10,30.13,29.98,24,4,24,0.00
2013-5-3,98,76,55,98,56,17,98,40,10,30.05,29.78,17,5,17,0.00
2013-5-4,72,64,59,61,58,53,99,80,60,29.88,29.77,20,7,20,0.00
2013-5-5,70,62,59,58,55,51,98,76,53,29.97,29.84,17,6,17,0.02
2013-5-6,71,63,58,64,58,54,99,86,60,30.04,29.91,16,6,16,0.35
2013-5-7,72,64,56,66,56,49,99,77,46,30.09,30.00,18,5,18,0.20
2013-5-8,72,64,56,61,55,48,98,73,48,30.12,30.08,21,5,21,0.00
2013-5-9,76,63,54,61,57,53,99,82,56,30.12,30.04,18,5,18,0.00
2013-5-10,79,67,56,63,60,56,99,80,56,30.11,30.01,16,4,16,0.00
2013-5-11,84,69,58,65,62,57,99,82,49,30.10,29.99,15,4,15,0.00
2013-5-12,88,71,61,70,63,56,99,79,35,30.07,29.91,15,4,15,0.00
2013-5-13,99,78,61,67,58,37,99,59,15,29.98,29.86,17,4,17,0.00
2013-5-14,81,68,59,61,58,54,96,72,43,30.02,29.91,17,6,17,0.00
2013-5-15,74,65,58,60,58,55,99,79,55,30.06,29.97,15,6,15,0.00
2013-5-16,74,66,62,60,57,56,89,75,57,30.00,29.91,17,5,17,0.00
2013-5-17,72,66,60,61,59,55,94,80,64,30.02,29.92,17,7,17,0.00
2013-5-18,74,66,58,62,58,56,98,77,56,30.06,29.99,17,6,17,0.00
2013-5-19,74,66,58,61,59,57,99,80,60,30.01,29.89,16,5,16,0.00
2013-5-20,79,68,59,64,62,58,99,82,55,29.97,29.89,16,5,16,0.00
2013-5-21,79,68,63,64,62,60,96,83,58,29.96,29.85,15,5,15,0.00
2013-5-22,74,67,62,61,58,56,93,75,56,29.88,29.80,16,6,16,0.00
2013-5-23,72,65,58,58,56,53,89,73,53,29.96,29.84,16,5,16,0.00
2013-5-24,72,65,59,58,56,53,92,75,57,30.01,29.93,16,5,16,0.00
2013-5-25,75,64,56,59,55,52,92,74,50,30.05,29.98,15,5,15,0.00
2013-5-26,71,64,56,59,57,54,97,78,60,30.08,30.00,16,5,16,0.00
2013-5-27,76,67,60,61,59,56,92,76,55,30.02,29.88,17,6,17,0.00
2013-5-28,75,68,61,64,61,59,96,81,61,29.90,29.75,21,6,21,0.00
2013-5-29,78,68,62,65,62,60,97,81,56,29.83,29.72,16,6,16,0.00
2013-5-30,78,68,60,64,62,59,99,84,59,29.91,29.78,16,5,16,0.00
2013-5-31,77,68,63,65,62,60,95,80,59,29.93,29.82,15,5,15,0.00
2013-6-1,82,70,64,67,64,62,95,83,57,29.88,29.78,16,5,16,0.00
2013-6-2,71,66,64,63,61,58,94,85,70,29.86,29.78,17,5,17,0.00
2013-6-3,73,67,63,62,60,59,89,79,66,29.91,29.81,15,6,15,0.00
2013-6-4,75,66,62,61,60,58,93,79,59,29.99,29.90,17,5,17,0.00
2013-6-5,79,67,60,61,59,57,96,76,49,30.02,29.92,18,5,18,0.00
2013-6-6,72,65,60,62,60,58,96,84,68,29.97,29.88,16,5,16,0.00
2013-6-7,73,65,61,62,60,58,95,84,68,29.94,29.81,15,5,15,0.00
2013-6-8,69,64,62,62,60,59,97,88,75,29.93,29.81,15,5,15,0.00
2013-6-9,71,64,59,62,60,57,95,86,71,29.96,29.89,15,4,15,0.00
2013-6-10,76,68,59,60,59,57,96,74,55,29.97,29.91,18,5,18,0.00
2013-6-11,84,70,59,66,62,58,99,79,50,29.96,29.88,19,5,19,0.00
2013-6-12,71,66,64,64,62,60,97,88,74,30.06,29.94,13,5,15,0.00
2013-6-13,76,68,60,62,60,58,97,77,58,30.04,29.91,15,4,15,0.00
2013-6-14,73,65,60,62,60,58,99,83,64,29.95,29.87,16,5,16,0.00
2013-6-15,77,66,60,61,58,56,96,77,51,30.00,29.91,15,5,15,0.00
2013-6-16,83,68,59,61,60,58,99,76,44,30.06,29.96,17,4,17,0.00
2013-6-17,78,67,59,63,61,58,99,84,57,30.01,29.90,16,5,16,0.00
2013-6-18,75,67,58,65,62,58,99,86,66,29.94,29.85,16,5,16,0.00
2013-6-19,77,69,60,63,61,57,99,79,51,29.89,29.81,17,6,17,0.00
2013-6-20,76,68,58,68,61,55,99,80,51,29.89,29.81,15,5,15,0.00
2013-6-21,83,69,58,69,62,58,99,80,49,29.93,29.85,15,5,15,0.00
2013-6-22,75,69,63,65,62,57,99,80,61,29.94,29.82,17,6,17,0.00
2013-6-23,73,67,64,63,60,58,96,80,65,29.91,29.82,17,6,17,0.00
2013-6-24,76,68,63,63,61,59,99,80,57,29.97,29.84,14,5,14,0.00
2013-6-25,79,68,61,65,64,61,99,86,61,30.02,29.91,13,4,13,0.00
2013-6-26,84,71,61,68,64,61,99,82,51,30.00,29.90,15,4,15,0.00
2013-6-27,85,71,64,70,66,63,99,88,57,30.04,29.97,16,6,16,0.00
2013-6-28,86,72,63,73,66,62,99,83,53,30.02,29.87,16,5,16,0.00
2013-6-29,83,74,64,71,67,64,99,80,60,29.90,29.74,15,4,15,0.00
2013-6-30,87,73,66,74,68,66,99,86,57,29.83,29.72,17,5,17,0.00
2013-7-1,90,72,65,70,68,65,99,88,46,29.91,29.81,15,5,15,0.00
2013-7-2,77,70,66,70,67,66,99,92,73,30.03,29.89,17,5,17,0.00
2013-7-3,79,70,64,69,66,64,99,88,67,29.95,29.81,13,4,13,0.00
2013-7-4,77,70,64,66,65,63,99,86,66,29.86,29.77,15,6,15,0.00
2013-7-5,81,70,65,68,65,64,99,86,60,29.87,29.78,17,6,17,0.00
2013-7-6,77,70,66,67,66,64,97,87,68,29.86,29.77,17,5,17,0.00
2013-7-7,82,72,65,68,66,63,97,82,60,29.88,29.76,15,4,15,0.00
2013-7-8,91,73,60,69,63,55,99,75,31,29.94,29.85,13,4,14,0.00
2013-7-9,82,71,62,70,66,62,99,84,58,30.02,29.90,17,5,17,0.00
2013-7-10,83,71,66,71,68,65,99,91,62,29.99,29.91,13,4,13,0.00
2013-7-11,75,70,68,69,68,67,99,93,80,29.99,29.89,11,4,11,0.00
2013-7-12,86,73,63,70,67,62,99,83,56,29.95,29.84,16,4,16,0.00
2013-7-13,80,71,62,67,65,62,99,83,61,29.98,29.86,15,4,15,0.00
2013-7-14,83,72,63,68,66,62,99,84,57,29.95,29.83,16,5,16,0.00
2013-7-15,84,74,63,71,65,54,99,77,43,29.89,29.80,15,4,15,0.00
2013-7-16,86,72,58,68,61,54,99,72,40,30.00,29.87,16,4,16,0.00
2013-7-17,89,74,58,68,59,44,99,66,25,30.03,29.94,15,4,15,0.00
2013-7-18,80,70,59,66,63,59,99,79,59,30.01,29.85,15,4,15,0.00
2013-7-19,80,68,61,67,64,61,99,88,62,29.93,29.84,14,5,14,0.00
2013-7-20,73,68,65,67,65,64,98,92,79,29.91,29.81,15,4,15,0.00
2013-7-21,70,67,65,67,65,64,99,93,86,29.94,29.81,10,4,11,0.00
2013-7-22,82,72,65,71,66,64,99,81,60,30.00,29.92,16,5,16,0.00
2013-7-23,83,72,64,69,65,61,99,80,57,30.04,29.94,15,4,15,0.00
2013-7-24,81,70,64,66,64,62,99,83,59,30.00,29.90,16,5,16,0.00
2013-7-25,79,69,61,66,64,61,99,84,61,30.04,29.93,16,4,16,0.00
2013-7-26,84,71,64,67,65,62,99,82,55,30.10,29.97,13,4,13,0.00
2013-7-27,75,68,63,66,64,60,99,86,70,30.03,29.88,19,6,19,0.00
2013-7-28,76,67,62,65,63,62,99,88,65,29.95,29.89,17,5,17,0.00
2013-7-29,80,69,62,62,60,59,95,75,50,30.06,29.93,15,4,15,0.00
2013-7-30,81,68,60,64,61,59,99,81,55,30.14,30.04,16,4,16,0.00
2013-7-31,74,66,60,62,61,59,99,83,64,30.12,30.01,15,5,15,0.00
2013-8-1,78,67,59,63,61,58,99,83,56,30.05,29.91,15,4,15,0.00
2013-8-2,81,68,61,65,62,61,99,82,56,29.99,29.91,15,5,15,0.00
2013-8-3,78,69,62,65,63,61,99,81,61,30.02,29.94,15,5,15,0.00
2013-8-4,79,68,61,65,63,60,99,84,58,30.04,29.92,15,4,15,0.00
2013-8-5,80,67,60,66,62,59,99,86,58,30.03,29.93,15,4,15,0.00
2013-8-6,77,68,60,64,61,60,99,81,59,30.06,29.98,15,4,15,0.00
2013-8-7,77,67,59,63,61,59,99,83,57,30.11,29.97,15,4,15,0.00
2013-8-8,78,67,57,67,61,56,99,84,55,30.02,29.92,17,4,17,0.00
2013-8-9,75,66,59,63,61,58,99,86,65,29.99,29.92,18,5,18,0.00
2013-8-10,76,67,60,63,61,60,99,84,62,30.06,29.96,14,4,14,0.00
2013-8-11,78,68,59,64,62,59,99,82,54,30.01,29.89,17,4,17,0.00
2013-8-12,77,68,60,65,63,60,99,85,64,30.00,29.89,15,4,15,0.00
2013-8-13,79,68,62,66,64,61,99,86,60,30.00,29.87,15,5,15,0.00
2013-8-14,84,68,62,68,64,62,99,90,57,29.94,29.84,17,6,17,0.00
2013-8-15,76,69,64,67,65,64,99,89,71,29.96,29.88,15,6,15,0.00
2013-8-16,82,71,64,71,65,62,99,85,53,29.98,29.89,15,4,15,0.00
2013-8-17,86,70,62,70,64,62,99,85,48,29.97,29.81,13,4,13,0.00
2013-8-18,79,68,62,69,64,62,99,89,64,29.93,29.84,17,5,17,0.00
2013-8-19,76,68,64,66,65,63,99,90,70,29.97,29.87,14,5,14,0.00
2013-8-20,86,70,62,68,64,61,99,83,49,29.95,29.83,14,4,14,0.00
2013-8-21,89,73,60,70,62,55,99,72,38,29.94,29.83,14,3,14,0.00
2013-8-22,93,76,61,69,61,49,99,66,24,29.94,29.81,14,4,14,0.00
2013-8-23,89,73,61,70,62,50,99,74,29,29.89,29.74,14,4,14,0.00
2013-8-24,80,67,58,69,63,58,99,88,51,29.90,29.77,15,4,15,0.00
2013-8-25,83,68,61,67,63,60,99,85,51,29.93,29.85,15,4,15,0.00
2013-8-26,89,76,62,73,61,49,99,67,28,29.93,29.81,13,4,13,0.00
2013-8-27,91,74,65,68,64,54,99,74,31,29.87,29.77,15,4,15,0.00
2013-8-28,95,77,65,67,62,38,96,64,17,29.91,29.78,14,3,14,0.00
2013-8-29,98,79,65,71,64,52,99,65,26,29.94,29.85,13,4,13,0.00
2013-8-30,91,79,69,71,68,63,94,70,43,29.98,29.89,15,5,15,0.00
2013-8-31,94,80,72,74,70,66,92,73,52,29.98,29.86,15,5,15,0.00
2013-9-1,92,79,70,74,70,65,96,75,53,29.94,29.83,16,4,16,0.00
2013-9-2,93,76,66,73,70,66,99,82,48,29.94,29.80,14,4,14,0.00
2013-9-3,95,79,63,75,69,58,99,76,41,29.94,29.80,14,4,14,0.00
2013-9-4,98,81,68,73,66,58,99,66,31,29.91,29.82,12,4,12,0.00
2013-9-5,99,79,66,70,65,56,99,68,26,30.01,29.80,11,4,11,0.00
2013-9-6,97,79,66,74,66,55,99,68,25,29.88,29.76,14,4,14,0.00
2013-9-7,96,78,66,73,66,59,99,72,31,29.86,29.78,14,4,14,0.00
2013-9-8,88,73,63,74,65,60,99,78,53,29.86,29.74,13,4,13,0.00
2013-9-9,84,69,62,69,64,59,99,83,53,30.01,29.74,17,5,17,0.00
2013-9-10,80,68,60,65,62,60,99,82,55,29.96,29.82,15,4,15,0.00
2013-9-11,77,67,59,66,62,59,99,87,63,30.02,29.91,17,4,17,0.00
2013-9-12,85,71,59,70,64,58,99,79,46,29.96,29.81,14,3,14,0.00
2013-9-13,82,69,60,72,64,60,99,86,53,29.85,29.66,15,4,15,0.00
2013-9-14,87,70,62,69,65,60,99,86,46,29.74,29.63,14,4,14,0.00
2013-9-15,90,72,62,74,65,61,99,82,44,29.78,29.70,15,3,15,0.00
2013-9-16,93,74,61,72,65,58,99,77,33,29.83,29.72,17,3,17,0.00
2013-9-17,75,67,62,67,64,62,99,92,72,29.84,29.74,15,4,15,0.00
2013-9-18,79,69,63,65,63,61,99,83,55,29.83,29.75,15,5,15,0.00
2013-9-19,82,68,60,67,64,60,99,88,58,29.85,29.76,15,4,15,0.00
2013-9-20,74,68,66,67,65,63,96,90,76,29.91,29.82,11,4,11,0.00
2013-9-21,76,69,62,65,62,59,99,80,60,29.98,29.81,16,6,16,0.00
2013-9-22,77,67,57,70,60,54,99,81,49,29.87,29.78,18,4,18,0.00
2013-9-23,94,73,55,64,56,43,99,63,25,29.91,29.79,15,3,15,0.00
2013-9-24,89,72,58,66,57,39,99,67,22,29.94,29.83,17,4,17,0.00
2013-9-25,77,69,61,66,63,55,99,84,65,29.87,29.72,18,5,18,0.00
2013-9-26,76,67,59,63,57,47,96,71,43,29.89,29.72,22,5,22,0.00
2013-9-27,87,69,51,86,45,22,99,53,10,29.99,29.88,15,3,15,0.00
2013-9-28,98,71,51,97,47,23,87,43,10,30.04,29.95,16,3,16,0.00
2013-9-29,88,70,51,61,52,40,93,59,23,30.07,29.96,15,3,15,0.00
2013-9-30,82,68,55,70,61,54,99,83,50,30.01,29.86,15,4,15,0.00
2013-10-1,78,68,58,70,63,58,99,87,62,29.95,29.87,14,4,14,0.00
2013-10-2,76,68,63,65,62,60,96,83,62,29.99,29.88,13,4,13,0.00
2013-10-3,78,68,60,68,63,60,99,87,61,29.94,29.83,18,4,18,0.00
2013-10-4,89,75,59,89,68,27,99,51,26,30.03,29.89,24,6,24,0.00
2013-10-5,97,80,61,97,71,20,51,6,10,30.12,30.01,35,10,35,0.00
2013-10-6,98,73,52,97,57,18,68,32,10,30.09,29.95,13,3,13,0.00
2013-10-7,80,67,56,63,55,43,99,68,31,29.99,29.89,15,3,15,0.00
2013-10-8,74,64,56,63,59,56,99,85,62,29.94,29.83,16,4,16,0.00
2013-10-9,68,61,55,58,54,49,99,77,60,29.84,29.73,25,6,25,0.06
2013-10-10,75,60,48,58,53,48,99,80,45,30.03,29.82,15,3,15,0.01
2013-10-11,77,62,49,60,56,49,99,82,47,30.06,29.95,13,3,13,0.00
2013-10-12,78,63,51,65,59,50,99,88,60,29.99,29.90,14,3,14,0.00
2013-10-13,71,63,56,64,59,56,99,86,62,30.04,29.94,15,3,15,0.00
2013-10-14,91,68,51,63,54,36,99,71,15,30.04,29.88,9,2,9,0.00
2013-10-15,91,70,52,91,52,24,99,58,10,29.97,29.86,15,3,15,0.00
2013-10-16,94,72,52,94,57,18,97,32,10,30.07,29.97,15,3,15,0.00
2013-10-17,86,66,48,65,51,39,92,63,26,30.05,29.93,13,3,13,0.00
2013-10-18,82,66,50,64,55,47,99,73,31,30.03,29.92,11,2,11,0.00
2013-10-19,83,66,55,66,60,47,99,84,31,30.03,29.95,14,3,14,0.01
2013-10-20,74,63,56,66,60,55,99,91,69,30.00,29.90,13,3,13,0.00
2013-10-21,76,64,56,64,60,56,99,88,61,30.00,29.91,12,3,12,0.00
2013-10-22,73,62,53,64,59,52,99,91,68,30.02,29.90,13,3,13,0.00
2013-10-23,68,63,55,62,60,55,99,89,72,29.99,29.92,15,3,15,0.00
2013-10-24,70,63,55,61,58,54,99,85,71,30.07,29.97,15,3,15,0.00
2013-10-25,74,63,54,62,60,54,99,89,64,30.15,30.01,12,3,12,0.00
2013-10-26,75,62,53,67,60,53,99,94,68,30.11,29.97,11,2,11,0.00
2013-10-27,70,63,56,65,61,56,99,94,82,29.99,29.83,16,4,16,0.01
2013-10-28,67,61,54,61,56,52,99,83,64,29.95,29.83,18,7,18,0.00
2013-10-29,73,60,52,61,54,51,99,82,55,30.03,29.94,17,4,17,0.09
2013-10-30,73,60,48,61,53,47,99,81,49,30.09,29.99,13,3,13,0.00
2013-10-31,85,62,46,56,49,36,99,69,19,30.11,29.98,12,3,12,0.00
2013-11-1,91,66,47,57,46,28,99,57,11,30.11,29.93,11,2,11,0.00
2013-11-2,81,64,50,64,52,24,99,73,13,30.00,29.89,17,3,17,0.00
2013-11-3,70,63,58,61,59,56,99,86,66,29.94,29.83,15,4,15,0.00
2013-11-4,70,62,53,59,56,53,99,80,65,29.96,29.81,15,3,15,0.00
2013-11-5,84,63,48,84,44,18,99,57,10,30.15,29.96,11,2,11,0.00
2013-11-6,86,64,45,86,41,16,78,39,10,30.21,30.09,12,3,12,0.00
2013-11-7,91,65,48,91,45,18,81,39,10,30.12,29.99,10,2,10,0.00
2013-11-8,75,62,47,64,55,42,99,81,37,30.05,29.94,11,3,11,0.00
2013-11-9,80,61,53,65,55,38,99,85,27,30.09,30.01,11,2,11,0.01
2013-11-10,86,61,50,62,52,24,99,79,11,30.14,30.04,15,2,15,0.01
2013-11-11,78,61,45,62,52,45,99,77,42,30.14,30.02,10,2,10,0.00
2013-11-12,79,61,51,62,54,48,99,81,36,30.18,30.06,7,1,7,0.00
2013-11-13,95,68,49,95,48,29,99,58,10,30.06,29.88,10,2,10,0.00
2013-11-14,90,67,52,63,52,27,99,66,11,29.93,29.78,13,3,13,0.00
2013-11-15,72,63,58,62,60,57,99,90,65,29.78,29.68,15,4,15,0.00
2013-11-16,70,61,53,58,54,50,99,81,52,29.96,29.76,14,3,14,0.00
2013-11-17,71,60,50,59,55,50,99,85,58,30.11,29.95,13,2,13,0.00
2013-11-18,69,59,49,61,56,48,99,89,62,30.17,30.06,12,2,12,0.00
2013-11-19,68,60,55,60,57,54,99,90,72,30.10,29.96,13,3,13,0.00
2013-11-20,69,60,53,62,58,53,99,91,67,29.99,29.89,11,2,11,0.11
2013-11-21,66,60,54,64,59,54,99,96,82,29.90,29.84,17,5,17,0.19
2013-11-22,67,57,52,56,47,41,99,73,42,29.97,29.84,15,4,15,0.00
2013-11-23,71,57,47,52,48,42,99,75,37,30.10,29.96,14,2,14,0.00
2013-11-24,72,56,45,54,48,42,99,78,38,30.21,30.09,12,3,12,0.00
2013-11-25,78,57,45,56,47,41,99,73,28,30.25,30.16,13,3,13,0.00
2013-11-26,78,59,45,58,48,37,99,72,23,30.20,30.04,13,2,13,0.00
2013-11-27,80,60,48,51,47,38,99,68,25,30.04,29.88,15,2,15,0.00
2013-11-28,71,58,46,60,52,45,99,83,45,30.07,29.90,15,2,15,0.00
2013-11-29,69,58,51,61,56,51,99,92,63,30.19,30.06,10,2,10,0.26
2013-11-30,82,61,50,58,52,48,99,79,33,30.20,30.07,8,2,8,0.00
2013-12-1,88,63,48,53,45,26,99,63,11,30.22,30.09,10,2,10,0.00
2013-12-2,78,58,46,56,47,34,99,71,22,30.12,29.92,9,2,9,0.00
2013-12-3,68,57,47,60,53,46,99,86,64,29.93,29.76,17,4,17,0.00
2013-12-4,65,54,44,49,39,26,92,61,30,29.98,29.79,14,4,14,0.00
2013-12-5,67,51,41,42,40,35,97,70,33,30.12,29.96,15,3,15,0.00
2013-12-6,62,50,41,46,43,40,99,76,46,30.19,30.10,14,4,14,0.00
2013-12-7,61,49,41,58,44,34,99,85,54,30.14,30.01,20,3,20,0.09
2013-12-8,60,46,35,43,38,33,99,79,42,30.22,30.10,11,2,11,0.00
2013-12-9,65,50,35,65,47,-8,99,36,10,30.30,30.20,26,6,26,0.00
2013-12-10,74,52,38,74,33,-8,67,27,10,30.27,30.09,14,3,14,0.00
2013-12-11,77,52,36,77,37,12,99,55,10,30.17,30.10,12,2,12,0.00
2013-12-12,67,53,41,57,49,41,99,88,58,30.23,30.13,12,3,12,0.00
2013-12-13,69,52,41,55,48,41,99,87,40,30.25,30.13,10,2,10,0.01
2013-12-14,80,57,41,80,40,16,99,57,10,30.30,30.18,10,2,10,0.00
2013-12-15,85,61,42,85,43,12,72,35,10,30.25,30.06,14,3,14,0.00
2013-12-16,87,63,52,87,39,21,80,43,10,30.13,30.05,15,2,15,0.00
2013-12-17,80,61,48,61,52,44,99,75,36,30.13,30.01,11,2,11,0.00
2013-12-18,76,60,53,62,58,51,99,93,45,30.01,29.87,16,4,16,0.00
2013-12-19,59,54,45,55,51,45,99,89,72,29.88,29.73,10,3,10,0.09
2013-12-20,65,51,40,56,48,40,99,91,68,29.96,29.77,11,2,11,0.01
2013-12-21,64,52,43,55,49,43,99,91,70,30.10,29.93,11,3,11,0.00
2013-12-22,73,54,42,56,49,42,99,87,41,30.27,30.09,12,2,12,0.00
2013-12-23,84,58,43,52,42,26,99,65,13,30.32,30.17,13,2,13,0.00
2013-12-24,80,58,43,57,46,34,96,69,19,30.20,30.09,9,2,9,0.00
2013-12-25,84,65,46,84,51,2,90,26,10,30.20,30.10,21,5,21,0.00
2013-12-26,85,62,45,85,45,6,48,21,10,30.17,30.06,17,4,17,0.00
2013-12-27,88,59,42,88,36,16,69,36,10,30.16,30.03,11,2,11,0.00
2013-12-28,72,56,46,59,47,32,99,75,29,30.05,29.94,13,3,13,0.00
2013-12-29,86,59,45,86,46,15,99,57,10,30.15,30.01,15,2,15,0.01
2013-12-30,80,54,38,76,39,14,99,61,10,30.27,30.14,9,2,9,0.00
2013-12-31,72,52,38,59,45,30,99,83,22,30.22,30.09,10,2,10,0.00
2014-1-1,73,52,42,59,49,41,99,91,42,30.16,30.04,11,2,11,0.01
2014-1-2,79,56,42,60,51,42,99,87,29,30.12,29.99,11,2,11,0.00